sensor_id;sensor_type;location;lat;lon;timestamp;P1;durP1;ratioP1;P2;durP2;ratioP2
19812;SDS011;10066;48.108;11.448;2023-07-30T00:00:41;1.60;;;1.23;;
19812;SDS011;10066;48.108;11.448;2023-07-30T00:03:08;1.17;;;1.00;;
19812;SDS011;10066;48.108;11.448;2023-07-30T00:05:35;1.50;;;1.27;;
19812;SDS011;10066;48.108;11.448;2023-07-30T00:08:03;1.30;;;1.20;;
19812;SDS011;10066;48.108;11.448;2023-07-30T00:10:30;2.30;;;1.40;;
19812;SDS011;10066;48.108;11.448;2023-07-30T00:12:57;1.43;;;1.30;;
19812;SDS011;10066;48.108;11.448;2023-07-30T00:15:24;1.17;;;1.07;;
19812;SDS011;10066;48.108;11.448;2023-07-30T00:17:51;1.20;;;1.10;;
19812;SDS011;10066;48.108;11.448;2023-07-30T00:20:18;1.50;;;1.20;;
19812;SDS011;10066;48.108;11.448;2023-07-30T00:22:45;2.10;;;1.20;;
19812;SDS011;10066;48.108;11.448;2023-07-30T00:25:13;1.27;;;1.17;;
19812;SDS011;10066;48.108;11.448;2023-07-30T00:27:40;2.10;;;1.10;;
19812;SDS011;10066;48.108;11.448;2023-07-30T00:30:07;1.40;;;1.20;;
19812;SDS011;10066;48.108;11.448;2023-07-30T00:32:34;2.07;;;1.30;;
19812;SDS011;10066;48.108;11.448;2023-07-30T00:35:05;1.90;;;1.43;;
19812;SDS011;10066;48.108;11.448;2023-07-30T00:37:34;3.30;;;1.70;;
19812;SDS011;10066;48.108;11.448;2023-07-30T00:40:01;4.27;;;1.47;;
19812;SDS011;10066;48.108;11.448;2023-07-30T00:42:29;1.90;;;1.60;;
19812;SDS011;10066;48.108;11.448;2023-07-30T00:44:56;2.33;;;1.30;;
19812;SDS011;10066;48.108;11.448;2023-07-30T00:47:23;4.50;;;1.50;;
19812;SDS011;10066;48.108;11.448;2023-07-30T00:49:51;2.70;;;1.67;;
19812;SDS011;10066;48.108;11.448;2023-07-30T00:52:20;2.80;;;1.23;;
19812;SDS011;10066;48.108;11.448;2023-07-30T00:54:48;1.60;;;1.50;;
19812;SDS011;10066;48.108;11.448;2023-07-30T00:57:15;2.03;;;1.50;;
19812;SDS011;10066;48.108;11.448;2023-07-30T00:59:45;2.20;;;1.60;;
19812;SDS011;10066;48.108;11.448;2023-07-30T01:02:12;4.03;;;1.77;;
19812;SDS011;10066;48.108;11.448;2023-07-30T01:04:40;2.50;;;1.50;;
19812;SDS011;10066;48.108;11.448;2023-07-30T01:07:07;1.93;;;1.20;;
19812;SDS011;10066;48.108;11.448;2023-07-30T01:09:34;2.43;;;1.70;;
19812;SDS011;10066;48.108;11.448;2023-07-30T01:12:01;3.37;;;1.80;;
19812;SDS011;10066;48.108;11.448;2023-07-30T01:14:29;3.03;;;1.40;;
19812;SDS011;10066;48.108;11.448;2023-07-30T01:16:59;2.27;;;1.50;;
19812;SDS011;10066;48.108;11.448;2023-07-30T01:19:26;3.17;;;1.70;;
19812;SDS011;10066;48.108;11.448;2023-07-30T01:21:54;1.63;;;1.20;;
19812;SDS011;10066;48.108;11.448;2023-07-30T01:24:21;1.73;;;1.33;;
19812;SDS011;10066;48.108;11.448;2023-07-30T01:26:49;1.97;;;1.50;;
19812;SDS011;10066;48.108;11.448;2023-07-30T01:29:22;2.10;;;1.50;;
19812;SDS011;10066;48.108;11.448;2023-07-30T01:31:56;1.67;;;1.40;;
19812;SDS011;10066;48.108;11.448;2023-07-30T01:34:28;2.70;;;1.73;;
19812;SDS011;10066;48.108;11.448;2023-07-30T01:37:01;3.60;;;1.50;;
19812;SDS011;10066;48.108;11.448;2023-07-30T01:39:29;1.63;;;1.53;;
19812;SDS011;10066;48.108;11.448;2023-07-30T01:41:58;1.97;;;1.40;;
19812;SDS011;10066;48.108;11.448;2023-07-30T01:44:25;1.53;;;1.30;;
19812;SDS011;10066;48.108;11.448;2023-07-30T01:46:52;1.30;;;1.20;;
19812;SDS011;10066;48.108;11.448;2023-07-30T01:49:19;2.47;;;1.70;;
19812;SDS011;10066;48.108;11.448;2023-07-30T01:51:46;1.53;;;1.30;;
19812;SDS011;10066;48.108;11.448;2023-07-30T01:54:14;1.67;;;1.40;;
19812;SDS011;10066;48.108;11.448;2023-07-30T01:56:41;2.87;;;1.50;;
19812;SDS011;10066;48.108;11.448;2023-07-30T01:59:08;1.40;;;1.30;;
19812;SDS011;10066;48.108;11.448;2023-07-30T02:01:35;1.57;;;1.33;;
19812;SDS011;10066;48.108;11.448;2023-07-30T02:04:04;1.43;;;1.33;;
19812;SDS011;10066;48.108;11.448;2023-07-30T02:06:32;2.70;;;1.30;;
19812;SDS011;10066;48.108;11.448;2023-07-30T02:08:58;2.00;;;1.70;;
19812;SDS011;10066;48.108;11.448;2023-07-30T02:11:27;1.97;;;1.20;;
19812;SDS011;10066;48.108;11.448;2023-07-30T02:13:54;3.13;;;1.40;;
19812;SDS011;10066;48.108;11.448;2023-07-30T02:16:23;1.80;;;1.30;;
19812;SDS011;10066;48.108;11.448;2023-07-30T02:18:51;1.40;;;1.30;;
19812;SDS011;10066;48.108;11.448;2023-07-30T02:21:17;2.37;;;1.60;;
19812;SDS011;10066;48.108;11.448;2023-07-30T02:23:45;3.03;;;1.70;;
19812;SDS011;10066;48.108;11.448;2023-07-30T02:26:12;1.80;;;1.60;;
19812;SDS011;10066;48.108;11.448;2023-07-30T02:28:40;1.93;;;1.50;;
19812;SDS011;10066;48.108;11.448;2023-07-30T02:31:08;1.73;;;1.40;;
19812;SDS011;10066;48.108;11.448;2023-07-30T02:33:35;1.77;;;1.40;;
19812;SDS011;10066;48.108;11.448;2023-07-30T02:36:03;1.80;;;1.60;;
19812;SDS011;10066;48.108;11.448;2023-07-30T02:38:32;2.27;;;1.40;;
19812;SDS011;10066;48.108;11.448;2023-07-30T02:41:00;1.53;;;1.40;;
19812;SDS011;10066;48.108;11.448;2023-07-30T02:43:26;4.70;;;1.50;;
19812;SDS011;10066;48.108;11.448;2023-07-30T02:45:56;2.30;;;1.47;;
19812;SDS011;10066;48.108;11.448;2023-07-30T02:48:22;1.43;;;1.33;;
19812;SDS011;10066;48.108;11.448;2023-07-30T02:50:49;2.17;;;1.50;;
19812;SDS011;10066;48.108;11.448;2023-07-30T02:53:16;2.90;;;1.40;;
19812;SDS011;10066;48.108;11.448;2023-07-30T02:55:43;1.83;;;1.60;;
19812;SDS011;10066;48.108;11.448;2023-07-30T02:58:10;2.13;;;1.30;;
19812;SDS011;10066;48.108;11.448;2023-07-30T03:00:37;2.57;;;1.43;;
19812;SDS011;10066;48.108;11.448;2023-07-30T03:03:05;1.63;;;1.50;;
19812;SDS011;10066;48.108;11.448;2023-07-30T03:05:32;2.40;;;1.50;;
19812;SDS011;10066;48.108;11.448;2023-07-30T03:07:59;2.43;;;1.57;;
19812;SDS011;10066;48.108;11.448;2023-07-30T03:10:26;1.93;;;1.60;;
19812;SDS011;10066;48.108;11.448;2023-07-30T03:12:53;1.67;;;1.50;;
19812;SDS011;10066;48.108;11.448;2023-07-30T03:15:19;1.93;;;1.70;;
19812;SDS011;10066;48.108;11.448;2023-07-30T03:17:46;1.90;;;1.60;;
19812;SDS011;10066;48.108;11.448;2023-07-30T03:20:14;2.03;;;1.47;;
19812;SDS011;10066;48.108;11.448;2023-07-30T03:22:41;3.53;;;1.90;;
19812;SDS011;10066;48.108;11.448;2023-07-30T03:25:08;2.57;;;1.90;;
19812;SDS011;10066;48.108;11.448;2023-07-30T03:27:37;2.33;;;1.77;;
19812;SDS011;10066;48.108;11.448;2023-07-30T03:30:05;2.53;;;1.53;;
19812;SDS011;10066;48.108;11.448;2023-07-30T03:32:32;2.47;;;1.70;;
19812;SDS011;10066;48.108;11.448;2023-07-30T03:34:59;2.80;;;1.97;;
19812;SDS011;10066;48.108;11.448;2023-07-30T03:37:27;3.50;;;1.87;;
19812;SDS011;10066;48.108;11.448;2023-07-30T03:39:54;2.43;;;1.77;;
19812;SDS011;10066;48.108;11.448;2023-07-30T03:42:21;2.33;;;2.07;;
19812;SDS011;10066;48.108;11.448;2023-07-30T03:44:48;4.00;;;1.90;;
19812;SDS011;10066;48.108;11.448;2023-07-30T03:47:15;2.63;;;1.90;;
19812;SDS011;10066;48.108;11.448;2023-07-30T03:49:41;3.23;;;2.70;;
19812;SDS011;10066;48.108;11.448;2023-07-30T03:52:08;2.05;;;1.85;;
19812;SDS011;10066;48.108;11.448;2023-07-30T03:54:36;2.37;;;2.00;;
19812;SDS011;10066;48.108;11.448;2023-07-30T03:57:04;3.00;;;2.10;;
19812;SDS011;10066;48.108;11.448;2023-07-30T03:59:31;5.40;;;2.30;;
19812;SDS011;10066;48.108;11.448;2023-07-30T04:01:57;2.73;;;2.20;;
19812;SDS011;10066;48.108;11.448;2023-07-30T04:04:24;2.30;;;1.90;;
19812;SDS011;10066;48.108;11.448;2023-07-30T04:06:51;3.20;;;2.10;;
19812;SDS011;10066;48.108;11.448;2023-07-30T04:09:18;2.43;;;2.23;;
19812;SDS011;10066;48.108;11.448;2023-07-30T04:11:47;3.00;;;2.00;;
19812;SDS011;10066;48.108;11.448;2023-07-30T04:14:14;3.10;;;2.20;;
19812;SDS011;10066;48.108;11.448;2023-07-30T04:16:40;2.70;;;2.07;;
19812;SDS011;10066;48.108;11.448;2023-07-30T04:19:12;2.97;;;2.17;;
19812;SDS011;10066;48.108;11.448;2023-07-30T04:21:39;4.60;;;2.10;;
19812;SDS011;10066;48.108;11.448;2023-07-30T04:24:05;3.27;;;1.87;;
19812;SDS011;10066;48.108;11.448;2023-07-30T04:26:33;2.70;;;2.50;;
19812;SDS011;10066;48.108;11.448;2023-07-30T04:29:01;2.33;;;2.10;;
19812;SDS011;10066;48.108;11.448;2023-07-30T04:31:28;2.90;;;2.20;;
19812;SDS011;10066;48.108;11.448;2023-07-30T04:33:54;2.20;;;1.97;;
19812;SDS011;10066;48.108;11.448;2023-07-30T04:36:23;3.13;;;2.40;;
19812;SDS011;10066;48.108;11.448;2023-07-30T04:38:50;4.90;;;2.30;;
19812;SDS011;10066;48.108;11.448;2023-07-30T04:41:17;2.97;;;2.30;;
19812;SDS011;10066;48.108;11.448;2023-07-30T04:43:45;2.10;;;1.83;;
19812;SDS011;10066;48.108;11.448;2023-07-30T04:46:13;3.43;;;2.20;;
19812;SDS011;10066;48.108;11.448;2023-07-30T04:48:40;2.63;;;2.00;;
19812;SDS011;10066;48.108;11.448;2023-07-30T04:51:07;2.87;;;2.03;;
19812;SDS011;10066;48.108;11.448;2023-07-30T04:53:34;2.90;;;1.97;;
19812;SDS011;10066;48.108;11.448;2023-07-30T04:56:01;6.43;;;2.30;;
19812;SDS011;10066;48.108;11.448;2023-07-30T04:58:27;2.70;;;1.80;;
19812;SDS011;10066;48.108;11.448;2023-07-30T05:00:55;2.20;;;2.00;;
19812;SDS011;10066;48.108;11.448;2023-07-30T05:03:25;2.43;;;1.70;;
19812;SDS011;10066;48.108;11.448;2023-07-30T05:05:53;3.33;;;1.70;;
19812;SDS011;10066;48.108;11.448;2023-07-30T05:08:20;3.23;;;1.63;;
19812;SDS011;10066;48.108;11.448;2023-07-30T05:10:46;2.33;;;1.90;;
19812;SDS011;10066;48.108;11.448;2023-07-30T05:13:13;2.10;;;1.87;;
19812;SDS011;10066;48.108;11.448;2023-07-30T05:15:40;2.53;;;1.60;;
19812;SDS011;10066;48.108;11.448;2023-07-30T05:18:08;2.70;;;1.87;;
19812;SDS011;10066;48.108;11.448;2023-07-30T05:20:36;2.63;;;1.50;;
19812;SDS011;10066;48.108;11.448;2023-07-30T05:23:04;3.17;;;1.60;;
19812;SDS011;10066;48.108;11.448;2023-07-30T05:25:32;2.17;;;1.90;;
19812;SDS011;10066;48.108;11.448;2023-07-30T05:28:00;1.97;;;1.60;;
19812;SDS011;10066;48.108;11.448;2023-07-30T05:30:27;2.07;;;1.87;;
19812;SDS011;10066;48.108;11.448;2023-07-30T05:32:54;1.70;;;1.57;;
19812;SDS011;10066;48.108;11.448;2023-07-30T05:35:21;4.00;;;1.67;;
19812;SDS011;10066;48.108;11.448;2023-07-30T05:37:49;1.90;;;1.57;;
19812;SDS011;10066;48.108;11.448;2023-07-30T05:40:16;5.83;;;1.83;;
19812;SDS011;10066;48.108;11.448;2023-07-30T05:42:43;2.40;;;1.50;;
19812;SDS011;10066;48.108;11.448;2023-07-30T05:45:12;1.67;;;1.50;;
19812;SDS011;10066;48.108;11.448;2023-07-30T05:47:39;1.60;;;1.43;;
19812;SDS011;10066;48.108;11.448;2023-07-30T05:50:06;1.50;;;1.20;;
19812;SDS011;10066;48.108;11.448;2023-07-30T05:52:34;1.80;;;1.40;;
19812;SDS011;10066;48.108;11.448;2023-07-30T05:55:02;2.60;;;1.50;;
19812;SDS011;10066;48.108;11.448;2023-07-30T05:57:29;2.40;;;1.50;;
19812;SDS011;10066;48.108;11.448;2023-07-30T05:59:56;2.30;;;1.63;;
19812;SDS011;10066;48.108;11.448;2023-07-30T06:02:25;2.17;;;1.60;;
19812;SDS011;10066;48.108;11.448;2023-07-30T06:04:52;1.53;;;1.33;;
19812;SDS011;10066;48.108;11.448;2023-07-30T06:07:19;2.50;;;1.50;;
19812;SDS011;10066;48.108;11.448;2023-07-30T06:09:46;1.60;;;1.50;;
19812;SDS011;10066;48.108;11.448;2023-07-30T06:12:14;1.83;;;1.60;;
19812;SDS011;10066;48.108;11.448;2023-07-30T06:14:41;1.50;;;1.40;;
19812;SDS011;10066;48.108;11.448;2023-07-30T06:17:08;1.60;;;1.50;;
19812;SDS011;10066;48.108;11.448;2023-07-30T06:19:35;1.80;;;1.40;;
19812;SDS011;10066;48.108;11.448;2023-07-30T06:22:03;1.57;;;1.40;;
19812;SDS011;10066;48.108;11.448;2023-07-30T06:24:30;2.30;;;1.20;;
19812;SDS011;10066;48.108;11.448;2023-07-30T06:26:57;2.07;;;1.70;;
19812;SDS011;10066;48.108;11.448;2023-07-30T06:29:25;2.23;;;1.30;;
19812;SDS011;10066;48.108;11.448;2023-07-30T06:31:52;1.40;;;1.30;;
19812;SDS011;10066;48.108;11.448;2023-07-30T06:34:19;1.73;;;1.50;;
19812;SDS011;10066;48.108;11.448;2023-07-30T06:36:46;1.67;;;1.33;;
19812;SDS011;10066;48.108;11.448;2023-07-30T06:39:13;1.70;;;1.30;;
19812;SDS011;10066;48.108;11.448;2023-07-30T06:41:40;1.97;;;1.50;;
19812;SDS011;10066;48.108;11.448;2023-07-30T06:44:07;1.67;;;1.50;;
19812;SDS011;10066;48.108;11.448;2023-07-30T06:46:36;2.33;;;1.60;;
19812;SDS011;10066;48.108;11.448;2023-07-30T06:49:06;1.60;;;1.40;;
19812;SDS011;10066;48.108;11.448;2023-07-30T06:51:34;3.27;;;1.40;;
19812;SDS011;10066;48.108;11.448;2023-07-30T06:54:01;1.30;;;1.20;;
19812;SDS011;10066;48.108;11.448;2023-07-30T06:56:28;1.23;;;1.13;;
19812;SDS011;10066;48.108;11.448;2023-07-30T06:58:55;2.17;;;1.50;;
19812;SDS011;10066;48.108;11.448;2023-07-30T07:01:23;3.13;;;1.30;;
19812;SDS011;10066;48.108;11.448;2023-07-30T07:03:51;1.80;;;1.40;;
19812;SDS011;10066;48.108;11.448;2023-07-30T07:06:18;1.30;;;1.20;;
19812;SDS011;10066;48.108;11.448;2023-07-30T07:08:45;1.80;;;1.47;;
19812;SDS011;10066;48.108;11.448;2023-07-30T07:11:12;1.40;;;1.30;;
19812;SDS011;10066;48.108;11.448;2023-07-30T07:13:39;2.13;;;1.50;;
19812;SDS011;10066;48.108;11.448;2023-07-30T07:16:06;2.45;;;1.40;;
19812;SDS011;10066;48.108;11.448;2023-07-30T07:18:33;1.40;;;1.30;;
19812;SDS011;10066;48.108;11.448;2023-07-30T07:21:01;2.30;;;1.40;;
19812;SDS011;10066;48.108;11.448;2023-07-30T07:23:28;2.13;;;1.40;;
19812;SDS011;10066;48.108;11.448;2023-07-30T07:25:55;1.40;;;1.30;;
19812;SDS011;10066;48.108;11.448;2023-07-30T07:28:22;1.90;;;1.43;;
19812;SDS011;10066;48.108;11.448;2023-07-30T07:30:49;2.57;;;1.50;;
19812;SDS011;10066;48.108;11.448;2023-07-30T07:33:16;1.80;;;1.23;;
19812;SDS011;10066;48.108;11.448;2023-07-30T07:35:43;2.70;;;1.60;;
19812;SDS011;10066;48.108;11.448;2023-07-30T07:38:12;1.93;;;1.33;;
19812;SDS011;10066;48.108;11.448;2023-07-30T07:40:39;1.67;;;1.30;;
19812;SDS011;10066;48.108;11.448;2023-07-30T07:43:06;1.67;;;1.30;;
19812;SDS011;10066;48.108;11.448;2023-07-30T07:45:34;1.73;;;1.40;;
19812;SDS011;10066;48.108;11.448;2023-07-30T07:48:03;1.30;;;1.20;;
19812;SDS011;10066;48.108;11.448;2023-07-30T07:50:31;1.90;;;1.70;;
19812;SDS011;10066;48.108;11.448;2023-07-30T07:52:57;1.30;;;1.20;;
19812;SDS011;10066;48.108;11.448;2023-07-30T07:55:26;1.87;;;1.20;;
19812;SDS011;10066;48.108;11.448;2023-07-30T07:57:53;1.40;;;1.20;;
19812;SDS011;10066;48.108;11.448;2023-07-30T08:00:20;2.17;;;1.30;;
19812;SDS011;10066;48.108;11.448;2023-07-30T08:02:47;1.37;;;1.27;;
19812;SDS011;10066;48.108;11.448;2023-07-30T08:05:16;1.83;;;1.30;;
19812;SDS011;10066;48.108;11.448;2023-07-30T08:07:44;1.50;;;1.37;;
19812;SDS011;10066;48.108;11.448;2023-07-30T08:10:12;1.30;;;1.20;;
19812;SDS011;10066;48.108;11.448;2023-07-30T08:12:43;1.90;;;1.20;;
19812;SDS011;10066;48.108;11.448;2023-07-30T08:15:10;1.50;;;1.40;;
19812;SDS011;10066;48.108;11.448;2023-07-30T08:17:37;1.30;;;1.20;;
19812;SDS011;10066;48.108;11.448;2023-07-30T08:20:05;1.50;;;1.40;;
19812;SDS011;10066;48.108;11.448;2023-07-30T08:22:33;1.50;;;1.30;;
19812;SDS011;10066;48.108;11.448;2023-07-30T08:25:00;2.80;;;1.40;;
19812;SDS011;10066;48.108;11.448;2023-07-30T08:27:27;1.70;;;1.20;;
19812;SDS011;10066;48.108;11.448;2023-07-30T08:29:56;2.17;;;1.27;;
19812;SDS011;10066;48.108;11.448;2023-07-30T08:32:23;2.50;;;1.50;;
19812;SDS011;10066;48.108;11.448;2023-07-30T08:34:50;1.33;;;1.10;;
19812;SDS011;10066;48.108;11.448;2023-07-30T08:37:19;1.87;;;1.20;;
19812;SDS011;10066;48.108;11.448;2023-07-30T08:39:46;1.30;;;1.20;;
19812;SDS011;10066;48.108;11.448;2023-07-30T08:42:14;1.30;;;1.03;;
19812;SDS011;10066;48.108;11.448;2023-07-30T08:44:41;1.20;;;1.00;;
19812;SDS011;10066;48.108;11.448;2023-07-30T08:47:10;1.47;;;1.20;;
19812;SDS011;10066;48.108;11.448;2023-07-30T08:49:37;2.50;;;1.50;;
19812;SDS011;10066;48.108;11.448;2023-07-30T08:52:04;3.37;;;1.23;;
19812;SDS011;10066;48.108;11.448;2023-07-30T08:54:34;1.30;;;1.20;;
19812;SDS011;10066;48.108;11.448;2023-07-30T08:57:03;1.40;;;1.30;;
19812;SDS011;10066;48.108;11.448;2023-07-30T08:59:31;1.73;;;1.23;;
19812;SDS011;10066;48.108;11.448;2023-07-30T09:02:03;2.07;;;1.30;;
19812;SDS011;10066;48.108;11.448;2023-07-30T09:04:36;1.87;;;1.40;;
19812;SDS011;10066;48.108;11.448;2023-07-30T09:07:08;1.40;;;1.30;;
19812;SDS011;10066;48.108;11.448;2023-07-30T09:09:35;1.30;;;1.20;;
19812;SDS011;10066;48.108;11.448;2023-07-30T09:12:03;1.70;;;1.60;;
19812;SDS011;10066;48.108;11.448;2023-07-30T09:14:31;1.40;;;1.30;;
19812;SDS011;10066;48.108;11.448;2023-07-30T09:16:58;2.20;;;1.10;;
19812;SDS011;10066;48.108;11.448;2023-07-30T09:19:25;1.20;;;1.10;;
19812;SDS011;10066;48.108;11.448;2023-07-30T09:21:53;2.23;;;1.40;;
19812;SDS011;10066;48.108;11.448;2023-07-30T09:24:21;3.30;;;1.20;;
19812;SDS011;10066;48.108;11.448;2023-07-30T09:26:48;2.03;;;1.30;;
19812;SDS011;10066;48.108;11.448;2023-07-30T09:29:15;1.30;;;1.20;;
19812;SDS011;10066;48.108;11.448;2023-07-30T09:31:45;1.77;;;1.10;;
19812;SDS011;10066;48.108;11.448;2023-07-30T09:34:16;1.27;;;1.17;;
19812;SDS011;10066;48.108;11.448;2023-07-30T09:36:45;1.30;;;1.07;;
19812;SDS011;10066;48.108;11.448;2023-07-30T09:39:19;2.23;;;1.53;;
19812;SDS011;10066;48.108;11.448;2023-07-30T09:41:48;1.87;;;1.23;;
19812;SDS011;10066;48.108;11.448;2023-07-30T09:44:15;2.37;;;1.30;;
19812;SDS011;10066;48.108;11.448;2023-07-30T09:46:46;1.10;;;0.90;;
19812;SDS011;10066;48.108;11.448;2023-07-30T09:49:13;3.67;;;1.30;;
19812;SDS011;10066;48.108;11.448;2023-07-30T09:51:41;1.00;;;0.90;;
19812;SDS011;10066;48.108;11.448;2023-07-30T09:54:08;1.47;;;1.23;;
19812;SDS011;10066;48.108;11.448;2023-07-30T09:56:39;1.83;;;1.20;;
19812;SDS011;10066;48.108;11.448;2023-07-30T09:59:08;1.47;;;1.10;;
19812;SDS011;10066;48.108;11.448;2023-07-30T10:01:36;2.03;;;1.10;;
19812;SDS011;10066;48.108;11.448;2023-07-30T10:04:08;1.83;;;1.00;;
19812;SDS011;10066;48.108;11.448;2023-07-30T10:06:36;1.27;;;1.10;;
19812;SDS011;10066;48.108;11.448;2023-07-30T10:09:09;4.43;;;1.20;;
19812;SDS011;10066;48.108;11.448;2023-07-30T10:11:39;1.67;;;1.27;;
19812;SDS011;10066;48.108;11.448;2023-07-30T10:14:08;1.40;;;1.20;;
19812;SDS011;10066;48.108;11.448;2023-07-30T10:16:35;1.67;;;1.20;;
19812;SDS011;10066;48.108;11.448;2023-07-30T10:19:03;1.27;;;1.13;;
19812;SDS011;10066;48.108;11.448;2023-07-30T10:21:32;1.53;;;1.20;;
19812;SDS011;10066;48.108;11.448;2023-07-30T10:24:05;1.67;;;1.30;;
19812;SDS011;10066;48.108;11.448;2023-07-30T10:26:34;1.20;;;1.07;;
19812;SDS011;10066;48.108;11.448;2023-07-30T10:29:11;1.40;;;1.10;;
19812;SDS011;10066;48.108;11.448;2023-07-30T10:31:43;1.30;;;0.90;;
19812;SDS011;10066;48.108;11.448;2023-07-30T10:34:14;1.00;;;0.70;;
19812;SDS011;10066;48.108;11.448;2023-07-30T10:36:42;1.10;;;0.90;;
19812;SDS011;10066;48.108;11.448;2023-07-30T10:39:11;3.30;;;0.87;;
19812;SDS011;10066;48.108;11.448;2023-07-30T10:41:39;1.40;;;1.10;;
19812;SDS011;10066;48.108;11.448;2023-07-30T10:44:06;1.13;;;0.90;;
19812;SDS011;10066;48.108;11.448;2023-07-30T10:46:34;3.17;;;0.93;;
19812;SDS011;10066;48.108;11.448;2023-07-30T10:49:03;1.30;;;1.10;;
19812;SDS011;10066;48.108;11.448;2023-07-30T10:51:31;1.20;;;1.10;;
19812;SDS011;10066;48.108;11.448;2023-07-30T10:53:59;1.20;;;1.00;;
19812;SDS011;10066;48.108;11.448;2023-07-30T10:56:25;1.50;;;1.27;;
19812;SDS011;10066;48.108;11.448;2023-07-30T10:58:55;1.30;;;1.10;;
19812;SDS011;10066;48.108;11.448;2023-07-30T11:01:23;1.40;;;1.20;;
19812;SDS011;10066;48.108;11.448;2023-07-30T11:03:55;1.50;;;1.20;;
19812;SDS011;10066;48.108;11.448;2023-07-30T11:06:22;1.10;;;1.00;;
19812;SDS011;10066;48.108;11.448;2023-07-30T11:08:50;2.00;;;1.20;;
19812;SDS011;10066;48.108;11.448;2023-07-30T11:11:19;1.33;;;1.17;;
19812;SDS011;10066;48.108;11.448;2023-07-30T11:13:48;2.03;;;1.40;;
19812;SDS011;10066;48.108;11.448;2023-07-30T11:16:15;3.20;;;1.47;;
19812;SDS011;10066;48.108;11.448;2023-07-30T11:18:43;1.57;;;1.10;;
19812;SDS011;10066;48.108;11.448;2023-07-30T11:21:13;2.73;;;1.30;;
19812;SDS011;10066;48.108;11.448;2023-07-30T11:23:42;1.33;;;1.10;;
19812;SDS011;10066;48.108;11.448;2023-07-30T11:26:13;2.17;;;1.20;;
19812;SDS011;10066;48.108;11.448;2023-07-30T11:28:42;2.60;;;1.20;;
19812;SDS011;10066;48.108;11.448;2023-07-30T11:31:10;1.77;;;1.17;;
19812;SDS011;10066;48.108;11.448;2023-07-30T11:33:41;1.40;;;1.10;;
19812;SDS011;10066;48.108;11.448;2023-07-30T11:36:12;1.60;;;1.50;;
19812;SDS011;10066;48.108;11.448;2023-07-30T11:38:42;1.95;;;1.20;;
19812;SDS011;10066;48.108;11.448;2023-07-30T11:41:13;2.53;;;1.00;;
19812;SDS011;10066;48.108;11.448;2023-07-30T11:43:42;1.20;;;1.10;;
19812;SDS011;10066;48.108;11.448;2023-07-30T11:46:12;1.20;;;1.10;;
19812;SDS011;10066;48.108;11.448;2023-07-30T11:48:43;1.55;;;1.10;;
19812;SDS011;10066;48.108;11.448;2023-07-30T11:51:22;1.90;;;0.90;;
19812;SDS011;10066;48.108;11.448;2023-07-30T11:53:56;1.15;;;0.90;;
19812;SDS011;10066;48.108;11.448;2023-07-30T11:56:25;0.70;;;0.70;;
19812;SDS011;10066;48.108;11.448;2023-07-30T11:58:57;1.75;;;1.00;;
19812;SDS011;10066;48.108;11.448;2023-07-30T12:01:26;2.60;;;1.10;;
19812;SDS011;10066;48.108;11.448;2023-07-30T12:03:55;4.63;;;1.17;;
19812;SDS011;10066;48.108;11.448;2023-07-30T12:06:24;1.13;;;1.03;;
19812;SDS011;10066;48.108;11.448;2023-07-30T12:09:09;1.37;;;1.27;;
19812;SDS011;10066;48.108;11.448;2023-07-30T12:11:43;1.70;;;1.10;;
19812;SDS011;10066;48.108;11.448;2023-07-30T12:14:12;0.80;;;0.80;;
19812;SDS011;10066;48.108;11.448;2023-07-30T12:16:39;1.07;;;0.97;;
19812;SDS011;10066;48.108;11.448;2023-07-30T12:19:05;1.43;;;1.23;;
19812;SDS011;10066;48.108;11.448;2023-07-30T12:21:34;1.83;;;1.00;;
19812;SDS011;10066;48.108;11.448;2023-07-30T12:24:01;1.77;;;1.20;;
19812;SDS011;10066;48.108;11.448;2023-07-30T12:26:28;1.17;;;0.93;;
19812;SDS011;10066;48.108;11.448;2023-07-30T12:28:55;2.93;;;1.07;;
19812;SDS011;10066;48.108;11.448;2023-07-30T12:31:22;3.67;;;1.10;;
19812;SDS011;10066;48.108;11.448;2023-07-30T12:33:49;3.27;;;1.17;;
19812;SDS011;10066;48.108;11.448;2023-07-30T12:36:16;1.27;;;0.80;;
19812;SDS011;10066;48.108;11.448;2023-07-30T12:38:44;1.50;;;1.10;;
19812;SDS011;10066;48.108;11.448;2023-07-30T12:41:11;1.30;;;1.20;;
19812;SDS011;10066;48.108;11.448;2023-07-30T12:43:38;1.97;;;1.03;;
19812;SDS011;10066;48.108;11.448;2023-07-30T12:46:07;1.17;;;0.63;;
19812;SDS011;10066;48.108;11.448;2023-07-30T12:48:34;2.07;;;1.13;;
19812;SDS011;10066;48.108;11.448;2023-07-30T12:51:01;2.20;;;1.30;;
19812;SDS011;10066;48.108;11.448;2023-07-30T12:53:28;1.27;;;1.17;;
19812;SDS011;10066;48.108;11.448;2023-07-30T12:55:56;2.03;;;1.20;;
19812;SDS011;10066;48.108;11.448;2023-07-30T12:58:24;1.87;;;1.20;;
19812;SDS011;10066;48.108;11.448;2023-07-30T13:00:51;3.70;;;1.40;;
19812;SDS011;10066;48.108;11.448;2023-07-30T13:03:18;2.53;;;1.10;;
19812;SDS011;10066;48.108;11.448;2023-07-30T13:05:46;1.40;;;1.07;;
19812;SDS011;10066;48.108;11.448;2023-07-30T13:08:13;2.43;;;1.13;;
19812;SDS011;10066;48.108;11.448;2023-07-30T13:10:42;1.50;;;1.20;;
19812;SDS011;10066;48.108;11.448;2023-07-30T13:13:11;1.13;;;0.93;;
19812;SDS011;10066;48.108;11.448;2023-07-30T13:15:38;1.70;;;1.13;;
19812;SDS011;10066;48.108;11.448;2023-07-30T13:18:05;1.27;;;1.17;;
19812;SDS011;10066;48.108;11.448;2023-07-30T13:20:32;1.27;;;0.83;;
19812;SDS011;10066;48.108;11.448;2023-07-30T13:22:58;2.80;;;1.40;;
19812;SDS011;10066;48.108;11.448;2023-07-30T13:25:26;1.30;;;1.20;;
19812;SDS011;10066;48.108;11.448;2023-07-30T13:27:53;3.80;;;1.13;;
19812;SDS011;10066;48.108;11.448;2023-07-30T13:30:21;2.00;;;1.43;;
19812;SDS011;10066;48.108;11.448;2023-07-30T13:32:50;2.23;;;1.30;;
19812;SDS011;10066;48.108;11.448;2023-07-30T13:35:17;1.27;;;0.97;;
19812;SDS011;10066;48.108;11.448;2023-07-30T13:37:46;2.33;;;1.10;;
19812;SDS011;10066;48.108;11.448;2023-07-30T13:40:13;2.97;;;1.50;;
19812;SDS011;10066;48.108;11.448;2023-07-30T13:42:40;2.60;;;1.27;;
19812;SDS011;10066;48.108;11.448;2023-07-30T13:45:08;1.30;;;1.20;;
19812;SDS011;10066;48.108;11.448;2023-07-30T13:47:39;3.60;;;1.03;;
19812;SDS011;10066;48.108;11.448;2023-07-30T13:50:07;1.67;;;1.30;;
19812;SDS011;10066;48.108;11.448;2023-07-30T13:52:34;4.13;;;1.33;;
19812;SDS011;10066;48.108;11.448;2023-07-30T13:55:01;6.97;;;1.60;;
19812;SDS011;10066;48.108;11.448;2023-07-30T13:57:30;4.20;;;2.20;;
19812;SDS011;10066;48.108;11.448;2023-07-30T13:59:57;5.93;;;2.33;;
19812;SDS011;10066;48.108;11.448;2023-07-30T14:02:24;2.60;;;2.00;;
19812;SDS011;10066;48.108;11.448;2023-07-30T14:04:54;4.43;;;1.90;;
19812;SDS011;10066;48.108;11.448;2023-07-30T14:07:21;3.57;;;2.70;;
19812;SDS011;10066;48.108;11.448;2023-07-30T14:09:51;2.70;;;2.23;;
19812;SDS011;10066;48.108;11.448;2023-07-30T14:12:20;3.53;;;2.40;;
19812;SDS011;10066;48.108;11.448;2023-07-30T14:14:50;3.23;;;2.70;;
19812;SDS011;10066;48.108;11.448;2023-07-30T14:17:20;3.50;;;2.10;;
19812;SDS011;10066;48.108;11.448;2023-07-30T14:19:50;4.27;;;2.20;;
19812;SDS011;10066;48.108;11.448;2023-07-30T14:22:23;4.43;;;2.70;;
19812;SDS011;10066;48.108;11.448;2023-07-30T14:25:02;3.23;;;1.80;;
19812;SDS011;10066;48.108;11.448;2023-07-30T14:27:31;3.23;;;2.30;;
19812;SDS011;10066;48.108;11.448;2023-07-30T14:29:58;2.70;;;2.23;;
19812;SDS011;10066;48.108;11.448;2023-07-30T14:32:26;3.40;;;1.90;;
19812;SDS011;10066;48.108;11.448;2023-07-30T14:34:53;3.83;;;2.40;;
19812;SDS011;10066;48.108;11.448;2023-07-30T14:37:27;2.17;;;1.33;;